Time;durP1;ratioP1;P1;durP2;ratioP2;P2;SDS_P1;SDS_P2;PMS_P1;PMS_P2;Temp;Humidity;BMP_temperature;BMP_pressure;BME280_temperature;BME280_humidity;BME280_pressure;Samples;Min_cycle;Max_cycle;Signal;HPM_P1;HPM_P2
2022/03/07 00:00:29;;;;;;;14.38;8.40;;;;;;;-0.28;72.71;102740.41;5044632;28;20084;-78
2022/03/07 00:02:54;;;;;;;14.95;9.05;;;;;;;-0.32;73.34;102740.84;5037683;28;20032;-78
2022/03/07 00:05:20;;;;;;;16.08;8.93;;;;;;;-0.36;74.18;102742.22;5044480;28;20023;-78
2022/03/07 00:07:45;;;;;;;13.48;8.95;;;;;;;-0.41;73.13;102736.63;5044433;28;20084;-78
2022/03/07 00:10:10;;;;;;;14.60;9.25;;;;;;;-0.44;73.11;102740.53;5044232;28;20231;-78
2022/03/07 00:12:36;;;;;;;15.52;8.95;;;;;;;-0.50;73.03;102737.38;5042667;28;20101;-78
2022/03/07 00:15:03;;;;;;;17.13;9.55;;;;;;;-0.54;72.30;102734.53;5043044;28;20053;-78
2022/03/07 00:17:28;;;;;;;16.27;8.77;;;;;;;-0.55;72.72;102740.41;5044312;28;20071;-81
2022/03/07 00:19:54;;;;;;;15.23;9.00;;;;;;;-0.57;72.98;102734.19;5042969;28;20207;-81
2022/03/07 00:22:19;;;;;;;14.88;8.82;;;;;;;-0.58;72.81;102736.59;5043490;28;20017;-82
2022/03/07 00:24:44;;;;;;;14.88;9.68;;;;;;;-0.62;72.62;102740.53;5044203;28;20036;-81
2022/03/07 00:27:09;;;;;;;16.13;9.00;;;;;;;-0.65;73.10;102737.69;5042973;28;20260;-81
2022/03/07 00:29:35;;;;;;;15.93;9.48;;;;;;;-0.70;72.80;102738.84;5042889;28;20025;-81
2022/03/07 00:32:00;;;;;;;13.60;9.15;;;;;;;-0.74;72.89;102740.22;5042120;28;20017;-81
2022/03/07 00:34:25;;;;;;;17.60;9.52;;;;;;;-0.78;72.46;102744.84;5042440;28;20100;-81
2022/03/07 00:36:51;;;;;;;15.02;9.32;;;;;;;-0.82;73.07;102738.53;5044019;28;20022;-81
2022/03/07 00:39:16;;;;;;;16.45;9.18;;;;;;;-0.82;73.09;102745.31;5044008;28;20017;-81
2022/03/07 00:41:42;;;;;;;17.13;9.57;;;;;;;-0.83;73.68;102741.84;5043410;28;20290;-81
2022/03/07 00:44:07;;;;;;;17.85;10.52;;;;;;;-0.84;73.07;102744.25;5042318;28;20025;-81
2022/03/07 00:46:32;;;;;;;16.30;10.15;;;;;;;-0.87;72.80;102742.28;5043883;28;20036;-79
2022/03/07 00:48:58;;;;;;;15.27;9.43;;;;;;;-0.88;73.80;102738.81;5043748;28;20089;-78
2022/03/07 00:51:24;;;;;;;15.60;9.63;;;;;;;-0.86;73.69;102743.22;5043759;28;20017;-78
2022/03/07 00:53:50;;;;;;;18.42;10.15;;;;;;;-0.88;72.86;102745.63;5041786;28;20024;-79
2022/03/07 00:56:15;;;;;;;15.93;9.68;;;;;;;-0.89;73.45;102742.13;5043668;28;20053;-79
2022/03/07 00:58:41;;;;;;;17.33;9.35;;;;;;;-0.89;73.41;102747.25;5043879;28;20036;-79
2022/03/07 01:01:06;;;;;;;15.38;9.57;;;;;;;-0.92;73.04;102743.50;5043551;28;20022;-78
2022/03/07 01:03:31;;;;;;;14.50;8.93;;;;;;;-0.94;73.83;102745.91;5042930;28;20036;-79
2022/03/07 01:05:57;;;;;;;15.48;8.75;;;;;;;-0.95;73.49;102749.19;5043538;28;20020;-78
2022/03/07 01:08:22;;;;;;;14.60;8.77;;;;;;;-0.98;73.79;102748.88;5043506;28;20089;-78
2022/03/07 01:10:48;;;;;;;13.70;8.98;;;;;;;-1.03;73.96;102752.63;5043711;28;20014;-78
2022/03/07 01:13:13;;;;;;;14.73;8.82;;;;;;;-1.06;74.22;102752.31;5036275;28;20064;-79
2022/03/07 01:15:39;;;;;;;13.98;8.90;;;;;;;-1.13;74.38;102753.38;5040185;28;20219;-78
2022/03/07 01:18:05;;;;;;;14.77;8.45;;;;;;;-1.17;73.75;102751.25;5036136;28;20032;-78
2022/03/07 01:20:31;;;;;;;15.23;8.57;;;;;;;-1.19;74.35;102747.59;5042214;28;20402;-78
2022/03/07 01:22:56;;;;;;;12.60;7.93;;;;;;;-1.20;73.95;102748.38;5042907;28;20023;-78
2022/03/07 01:25:21;;;;;;;16.55;9.02;;;;;;;-1.21;74.09;102751.69;5043414;28;20024;-78
2022/03/07 01:27:47;;;;;;;14.80;8.93;;;;;;;-1.24;74.06;102749.69;5042456;28;20045;-78
2022/03/07 01:30:12;;;;;;;14.57;9.05;;;;;;;-1.30;73.98;102746.53;5043561;28;20025;-78
2022/03/07 01:32:38;;;;;;;13.85;8.70;;;;;;;-1.32;75.35;102747.13;5042739;28;20046;-78
2022/03/07 01:35:05;;;;;;;13.93;8.43;;;;;;;-1.34;75.16;102735.84;5042044;28;20095;-78
2022/03/07 01:37:30;;;;;;;14.45;8.43;;;;;;;-1.37;75.88;102738.09;5043043;28;20021;-78
2022/03/07 01:39:56;;;;;;;14.40;8.48;;;;;;;-1.41;75.23;102741.97;5043233;28;20049;-78
2022/03/07 01:42:21;;;;;;;14.35;8.38;;;;;;;-1.43;74.90;102739.25;5043428;28;20071;-78
2022/03/07 01:44:46;;;;;;;14.27;8.98;;;;;;;-1.45;75.06;102740.75;5042521;28;20161;-78
2022/03/07 01:47:12;;;;;;;13.15;8.70;;;;;;;-1.46;75.23;102738.94;5043190;28;20091;-78
2022/03/07 01:49:37;;;;;;;14.65;8.15;;;;;;;-1.49;74.74;102747.94;5044152;28;20159;-78
2022/03/07 01:52:03;;;;;;;13.50;8.32;;;;;;;-1.53;74.81;102735.59;5046679;28;20056;-78
2022/03/07 01:54:28;;;;;;;12.70;7.88;;;;;;;-1.54;75.09;102738.91;5044036;28;20114;-78
2022/03/07 01:56:54;;;;;;;13.45;8.77;;;;;;;-1.57;75.13;102742.94;5046856;28;20013;-78
2022/03/07 01:59:23;;;;;;;14.73;8.52;;;;;;;-1.58;75.48;102746.25;5046830;28;20037;-78
2022/03/07 02:01:49;;;;;;;13.73;8.38;;;;;;;-1.59;75.09;102741.00;5046263;28;20021;-78
2022/03/07 02:04:15;;;;;;;14.10;7.70;;;;;;;-1.61;75.38;102738.28;5033972;28;20079;-78
2022/03/07 02:06:40;;;;;;;13.48;8.68;;;;;;;-1.64;75.60;102732.81;5044132;28;20025;-78
2022/03/07 02:09:07;;;;;;;13.70;8.48;;;;;;;-1.68;76.11;102735.84;5044092;28;20256;-79
2022/03/07 02:11:33;;;;;;;14.88;8.52;;;;;;;-1.73;76.09;102726.78;5042784;28;20017;-78
2022/03/07 02:14:16;;;;;;;14.25;8.45;;;;;;;-1.78;76.40;102730.53;5045324;28;20241;-78
2022/03/07 02:16:42;;;;;;;16.13;8.43;;;;;;;-1.80;76.38;102729.44;5046406;28;20028;-81
2022/03/07 02:19:07;;;;;;;15.25;8.50;;;;;;;-1.84;76.13;102737.53;5044360;28;20025;-80
2022/03/07 02:21:34;;;;;;;14.90;8.57;;;;;;;-1.87;76.54;102732.09;5045145;28;20044;-81
2022/03/07 02:24:00;;;;;;;13.93;8.63;;;;;;;-1.89;76.44;102725.94;5046496;28;20248;-81
2022/03/07 02:26:25;;;;;;;14.77;8.88;;;;;;;-1.92;76.36;102723.97;5046315;28;20103;-81
2022/03/07 02:28:50;;;;;;;13.30;8.18;;;;;;;-1.96;76.35;102722.72;5045664;28;20264;-81
2022/03/07 02:31:18;;;;;;;13.75;8.82;;;;;;;-1.97;76.21;102718.38;5044780;28;20045;-80
2022/03/07 02:33:43;;;;;;;13.52;8.38;;;;;;;-1.99;76.28;102717.28;5045047;28;20055;-81
2022/03/07 02:36:09;;;;;;;16.30;9.13;;;;;;;-1.97;76.53;102714.91;5046099;28;20252;-81
2022/03/07 02:38:35;;;;;;;14.90;8.93;;;;;;;-1.95;76.73;102723.66;5044438;28;20062;-81
2022/03/07 02:41:01;;;;;;;13.27;8.40;;;;;;;-1.96;76.47;102722.72;5045033;28;20048;-81
2022/03/07 02:43:26;;;;;;;15.57;9.60;;;;;;;-1.95;76.55;102721.97;5046042;28;20021;-81
2022/03/07 02:45:52;;;;;;;17.08;8.85;;;;;;;-1.98;76.52;102720.78;5044851;28;20080;-81
2022/03/07 02:48:18;;;;;;;15.18;8.93;;;;;;;-2.00;76.60;102725.72;5045246;28;20192;-78
2022/03/07 02:50:45;;;;;;;14.60;8.80;;;;;;;-2.00;77.20;102723.16;5044818;28;20314;-78
2022/03/07 02:53:11;;;;;;;15.05;9.02;;;;;;;-2.01;76.73;102723.91;5043009;28;20021;-79
2022/03/07 02:55:36;;;;;;;14.40;9.10;;;;;;;-2.02;76.73;102726.31;5037409;28;20018;-78
2022/03/07 02:58:01;;;;;;;14.75;9.25;;;;;;;-2.04;76.83;102720.13;5045800;28;20175;-78
2022/03/07 03:00:26;;;;;;;16.25;8.98;;;;;;;-2.06;76.69;102713.94;5044423;28;20013;-78
2022/03/07 03:02:52;;;;;;;14.85;8.73;;;;;;;-2.08;77.13;102725.66;5045748;28;20224;-78
2022/03/07 03:05:17;;;;;;;13.25;8.55;;;;;;;-2.09;77.80;102727.28;5044806;28;20331;-78
2022/03/07 03:07:43;;;;;;;15.60;8.68;;;;;;;-2.15;77.87;102721.56;5045643;28;20021;-78
2022/03/07 03:10:08;;;;;;;18.55;9.38;;;;;;;-2.19;77.93;102721.97;5044485;28;20061;-78
2022/03/07 03:12:34;;;;;;;17.85;9.93;;;;;;;-2.21;77.80;102726.03;5044225;28;20025;-78
2022/03/07 03:14:59;;;;;;;16.30;9.43;;;;;;;-2.24;78.16;102720.59;5045431;28;20036;-78
2022/03/07 03:17:26;;;;;;;14.60;9.10;;;;;;;-2.25;78.35;102726.44;5045332;28;20176;-81
2022/03/07 03:19:52;;;;;;;14.27;9.43;;;;;;;-2.25;78.26;102714.56;5043232;28;20025;-81
2022/03/07 03:22:19;;;;;;;18.10;9.50;;;;;;;-2.26;77.40;102720.41;5045192;28;20024;-81
2022/03/07 03:24:45;;;;;;;16.95;9.73;;;;;;;-2.27;77.52;102719.50;5045072;28;20017;-81
2022/03/07 03:27:10;;;;;;;15.55;9.18;;;;;;;-2.26;77.68;102725.50;5045326;28;20291;-81
2022/03/07 03:29:36;;;;;;;17.75;9.77;;;;;;;-2.27;76.96;102724.63;5044255;28;20032;-81
2022/03/07 03:32:01;;;;;;;15.50;9.65;;;;;;;-2.28;77.15;102724.47;5043883;28;20017;-81
2022/03/07 03:34:26;;;;;;;15.98;9.45;;;;;;;-2.28;77.35;102722.81;5045008;28;20029;-81
2022/03/07 03:36:51;;;;;;;14.82;9.50;;;;;;;-2.28;76.82;102724.47;5043797;28;20040;-81
2022/03/07 03:39:17;;;;;;;15.98;9.25;;;;;;;-2.30;77.09;102721.75;5039409;28;20024;-81
2022/03/07 03:41:42;;;;;;;17.38;9.63;;;;;;;-2.32;77.87;102719.78;5045088;28;20371;-81
2022/03/07 03:44:08;;;;;;;15.20;9.73;;;;;;;-2.31;78.08;102727.59;5044896;28;20031;-81
2022/03/07 03:46:33;;;;;;;16.52;10.07;;;;;;;-2.30;78.54;102731.97;5045028;28;20044;-81
2022/03/07 03:48:59;;;;;;;17.88;9.95;;;;;;;-2.29;78.23;102736.34;5044275;28;20350;-81
2022/03/07 03:51:24;;;;;;;17.50;9.93;;;;;;;-2.30;78.07;102731.97;5043746;28;20013;-81
2022/03/07 03:53:49;;;;;;;17.88;11.07;;;;;;;-2.31;79.30;102730.13;5044760;28;20072;-81
2022/03/07 03:56:15;;;;;;;18.52;9.85;;;;;;;-2.30;79.53;102731.97;5044679;28;20252;-81
2022/03/07 03:58:40;;;;;;;19.25;10.93;;;;;;;-2.29;79.33;102736.34;5044589;28;20063;-80
2022/03/07 04:01:06;;;;;;;17.20;10.20;;;;;;;-2.29;79.17;102730.31;5041694;28;20025;-81
2022/03/07 04:03:31;;;;;;;18.88;9.88;;;;;;;-2.30;78.56;102739.63;5044658;28;20139;-81
2022/03/07 04:05:56;;;;;;;18.38;10.20;;;;;;;-2.33;78.55;102740.91;5044572;28;20160;-81
2022/03/07 04:08:27;;;;;;;17.75;10.23;;;;;;;-2.32;78.06;102741.13;5044511;28;20075;-81
2022/03/07 04:10:52;;;;;;;17.23;9.18;;;;;;;-2.32;78.26;102735.09;5043153;28;20179;-81
2022/03/07 04:13:17;;;;;;;17.20;9.98;;;;;;;-2.34;77.88;102734.91;5043097;28;20275;-80
2022/03/07 04:15:43;;;;;;;17.10;9.95;;;;;;;-2.35;77.62;102735.66;5044247;28;20042;-81
2022/03/07 04:18:08;;;;;;;17.65;10.02;;;;;;;-2.38;77.76;102730.22;5044439;28;20028;-81
2022/03/07 04:20:34;;;;;;;15.43;10.07;;;;;;;-2.38;78.53;102731.88;5044290;28;20021;-80
2022/03/07 04:23:01;;;;;;;16.90;10.27;;;;;;;-2.41;78.51;102727.34;5044436;28;20036;-81
2022/03/07 04:25:27;;;;;;;16.00;9.68;;;;;;;-2.40;79.44;102734.28;5044244;28;20248;-81
2022/03/07 04:27:52;;;;;;;17.38;9.68;;;;;;;-2.40;78.33;102731.72;5043682;28;20021;-81
2022/03/07 04:30:17;;;;;;;23.35;10.32;;;;;;;-2.41;78.14;102732.47;5044088;28;20229;-81
2022/03/07 04:32:43;;;;;;;17.45;9.77;;;;;;;-2.42;78.71;102730.63;5034724;28;20013;-81
2022/03/07 04:35:10;;;;;;;18.30;10.15;;;;;;;-2.40;79.34;102729.19;5044057;28;20025;-82
2022/03/07 04:37:39;;;;;;;18.23;9.80;;;;;;;-2.39;78.05;102727.50;5042121;28;20191;-81
2022/03/07 04:40:07;;;;;;;15.60;9.10;;;;;;;-2.40;77.99;102724.06;5042641;28;20207;-81
2022/03/07 04:42:32;;;;;;;17.40;10.15;;;;;;;-2.42;77.79;102722.97;5043871;28;20088;-81
2022/03/07 04:44:58;;;;;;;19.35;10.10;;;;;;;-2.43;77.75;102733.97;5043767;28;20017;-81
2022/03/07 04:47:23;;;;;;;16.63;9.70;;;;;;;-2.46;77.96;102731.97;5042574;28;20267;-81
2022/03/07 04:49:49;;;;;;;16.05;9.55;;;;;;;-2.46;77.81;102728.53;5041901;28;20276;-81
2022/03/07 04:52:14;;;;;;;15.90;9.85;;;;;;;-2.50;77.56;102724.72;5042314;28;20059;-81
2022/03/07 04:54:40;;;;;;;18.88;9.77;;;;;;;-2.52;78.22;102721.13;5043760;28;20314;-81
2022/03/07 04:57:05;;;;;;;17.40;9.73;;;;;;;-2.53;77.64;102728.63;5042262;28;20033;-78
2022/03/07 04:59:31;;;;;;;17.05;9.77;;;;;;;-2.55;77.69;102731.00;5043548;28;20025;-78
2022/03/07 05:01:56;;;;;;;15.40;9.77;;;;;;;-2.55;78.07;102730.09;5039667;28;20014;-78
2022/03/07 05:04:21;;;;;;;18.52;9.90;;;;;;;-2.55;78.02;102732.63;5033787;28;20653;-78
2022/03/07 05:06:46;;;;;;;17.63;10.10;;;;;;;-2.55;78.17;102727.53;5043574;28;20017;-78
2022/03/07 05:09:12;;;;;;;19.08;10.02;;;;;;;-2.56;77.97;102733.38;5042462;28;20084;-78
2022/03/07 05:11:37;;;;;;;16.65;9.80;;;;;;;-2.56;79.04;102731.75;5042322;28;20014;-78
2022/03/07 05:14:02;;;;;;;17.42;10.23;;;;;;;-2.55;78.72;102719.88;5043335;28;20029;-77
2022/03/07 05:16:28;;;;;;;17.00;9.90;;;;;;;-2.57;78.61;102723.94;5041796;28;20034;-78
2022/03/07 05:18:53;;;;;;;19.48;10.63;;;;;;;-2.56;79.89;102723.16;5043626;28;20091;-78
2022/03/07 05:21:19;;;;;;;18.77;11.02;;;;;;;-2.57;79.84;102724.81;5036708;28;20089;-78
2022/03/07 05:23:44;;;;;;;19.98;10.73;;;;;;;-2.59;79.56;102728.88;5043551;28;20017;-78
2022/03/07 05:26:09;;;;;;;18.70;10.60;;;;;;;-2.60;79.71;102731.25;5046720;28;20018;-81
2022/03/07 05:28:35;;;;;;;19.08;9.75;;;;;;;-2.62;79.57;102721.78;5047537;28;20028;-81
2022/03/07 05:31:01;;;;;;;16.42;9.95;;;;;;;-2.63;79.60;102725.06;5047860;28;20021;-81
2022/03/07 05:33:26;;;;;;;15.90;10.43;;;;;;;-2.66;78.38;102727.28;5046661;28;20020;-81
2022/03/07 05:35:51;;;;;;;19.48;10.50;;;;;;;-2.69;78.90;102724.41;5046291;28;20201;-82
2022/03/07 05:38:17;;;;;;;18.27;10.52;;;;;;;-2.70;79.29;102730.25;5047374;28;20025;-82
2022/03/07 05:40:42;;;;;;;17.83;10.80;;;;;;;-2.71;78.96;102728.47;5047317;28;20021;-82
2022/03/07 05:43:08;;;;;;;20.02;10.80;;;;;;;-2.74;79.34;102730.66;5044617;28;20018;-81
2022/03/07 05:45:34;;;;;;;18.25;10.98;;;;;;;-2.76;80.03;102728.72;5041362;28;20045;-82
2022/03/07 05:47:59;;;;;;;17.75;10.95;;;;;;;-2.76;80.32;102738.91;5038669;28;20012;-82
2022/03/07 05:50:24;;;;;;;19.55;10.88;;;;;;;-2.77;79.99;102732.88;5038286;28;20018;-81
2022/03/07 05:52:50;;;;;;;20.27;11.23;;;;;;;-2.76;79.66;102734.72;5037955;28;20141;-81
2022/03/07 05:55:15;;;;;;;17.98;11.05;;;;;;;-2.76;80.20;102729.59;5043006;28;20024;-81
2022/03/07 05:57:40;;;;;;;20.38;10.73;;;;;;;-2.74;79.39;102728.09;5040367;28;20044;-78
2022/03/07 06:00:08;;;;;;;17.98;11.27;;;;;;;-2.74;79.19;102737.41;5046213;28;20022;-78
2022/03/07 06:02:34;;;;;;;23.02;11.25;;;;;;;-2.76;79.18;102741.47;5033675;28;20145;-78
2022/03/07 06:05:00;;;;;;;20.80;10.63;;;;;;;-2.79;78.55;102747.13;5038723;28;20093;-78
2022/03/07 06:07:26;;;;;;;19.63;10.75;;;;;;;-2.82;78.25;102744.25;5033315;28;20013;-78
2022/03/07 06:09:51;;;;;;;17.73;10.80;;;;;;;-2.83;79.22;102744.97;5035758;28;20021;-78
2022/03/07 06:12:16;;;;;;;18.77;10.65;;;;;;;-2.83;78.65;102747.53;5046587;28;20025;-78
2022/03/07 06:14:41;;;;;;;21.02;11.48;;;;;;;-2.82;79.10;102754.47;5044291;28;20037;-78
2022/03/07 06:17:07;;;;;;;22.27;11.18;;;;;;;-2.81;79.24;102758.78;5035299;28;20071;-78
2022/03/07 06:19:32;;;;;;;19.00;10.95;;;;;;;-2.82;79.15;102760.44;5044947;28;20013;-78
2022/03/07 06:21:58;;;;;;;21.30;11.18;;;;;;;-2.84;78.98;102753.38;5046260;28;20027;-78
2022/03/07 06:24:23;;;;;;;23.88;11.15;;;;;;;-2.83;79.28;102752.63;5046174;28;20040;-78
2022/03/07 06:26:48;;;;;;;20.65;11.48;;;;;;;-2.82;79.49;102765.56;5043956;28;20048;-78
2022/03/07 06:29:13;;;;;;;18.33;10.50;;;;;;;-2.81;80.19;102767.38;5044899;28;20081;-78
2022/03/07 06:31:39;;;;;;;19.77;11.52;;;;;;;-2.80;80.36;102769.16;5044381;28;20417;-78
2022/03/07 06:34:04;;;;;;;21.50;11.88;;;;;;;-2.78;80.64;102766.81;5044855;28;20143;-78
2022/03/07 06:36:30;;;;;;;20.35;12.13;;;;;;;-2.76;80.58;102765.31;5043567;28;20280;-78
2022/03/07 06:38:55;;;;;;;18.67;11.25;;;;;;;-2.73;79.95;102775.84;5043615;28;20013;-78
2022/03/07 06:41:20;;;;;;;20.77;12.00;;;;;;;-2.73;79.93;102774.97;5037008;28;20014;-78
2022/03/07 06:43:45;;;;;;;17.77;10.77;;;;;;;-2.74;79.61;102774.03;5039497;28;20168;-77
2022/03/07 06:46:11;;;;;;;21.60;11.88;;;;;;;-2.72;79.74;102775.13;5044862;28;20016;-78
2022/03/07 06:48:36;;;;;;;22.98;12.13;;;;;;;-2.71;80.72;102774.38;5046138;28;20018;-78
2022/03/07 06:51:02;;;;;;;23.20;12.52;;;;;;;-2.67;80.25;102780.72;5033896;28;20083;-78
2022/03/07 06:53:27;;;;;;;21.60;12.45;;;;;;;-2.65;80.48;102781.78;5034611;28;20279;-77
2022/03/07 06:55:53;;;;;;;22.55;12.52;;;;;;;-2.62;80.73;102784.69;5045292;28;20021;-78
2022/03/07 06:58:19;;;;;;;25.42;13.80;;;;;;;-2.58;80.24;102791.00;5045674;28;20036;-77
2022/03/07 07:00:45;;;;;;;21.58;12.93;;;;;;;-2.56;79.74;102792.06;5044694;28;20009;-78
2022/03/07 07:03:10;;;;;;;24.38;12.68;;;;;;;-2.55;80.13;102787.16;5039619;28;20030;-78
2022/03/07 07:05:35;;;;;;;23.83;13.32;;;;;;;-2.51;80.86;102784.16;5037131;28;20092;-77
2022/03/07 07:08:01;;;;;;;25.02;14.10;;;;;;;-2.41;80.16;102786.06;5045759;28;20035;-77
2022/03/07 07:10:26;;;;;;;27.23;14.20;;;;;;;-2.29;79.62;102779.75;5041659;28;20076;-78
2022/03/07 07:12:52;;;;;;;23.80;13.90;;;;;;;-2.24;79.50;102790.44;5035668;28;20275;-78
2022/03/07 07:15:18;;;;;;;29.00;14.85;;;;;;;-2.18;80.69;102785.97;5045347;28;20087;-77
2022/03/07 07:17:44;;;;;;;26.65;14.52;;;;;;;-2.09;80.84;102788.59;5045462;28;20044;-78
2022/03/07 07:20:11;;;;;;;26.42;14.57;;;;;;;-1.92;79.70;102783.59;5045467;28;20045;-78
2022/03/07 07:22:37;;;;;;;26.70;14.73;;;;;;;-1.82;79.06;102785.50;5035712;28;20048;-78
2022/03/07 07:25:04;;;;;;;25.65;14.32;;;;;;;-1.79;78.97;102788.38;5045227;28;20260;-78
2022/03/07 07:27:29;;;;;;;29.55;15.00;;;;;;;-1.76;79.15;102785.22;5045193;28;20025;-82
2022/03/07 07:29:54;;;;;;;26.58;14.27;;;;;;;-1.76;78.97;102777.56;5044601;28;20119;-82
2022/03/07 07:32:20;;;;;;;26.45;15.40;;;;;;;-1.71;79.30;102766.16;5038335;28;20017;-81
2022/03/07 07:34:45;;;;;;;27.23;15.25;;;;;;;-1.54;79.52;102772.13;5045140;28;20029;-81
2022/03/07 07:37:10;;;;;;;27.17;14.70;;;;;;;-1.31;79.25;102783.06;5044842;28;20028;-81
2022/03/07 07:39:36;;;;;;;25.38;14.38;;;;;;;-1.01;78.08;102781.84;5044061;28;20018;-82
2022/03/07 07:42:02;;;;;;;23.38;13.25;;;;;;;-0.57;77.50;102776.84;5044438;28;20264;-82
2022/03/07 07:44:27;;;;;;;24.15;14.13;;;;;;;-0.42;76.67;102777.44;5045046;28;20215;-82
2022/03/07 07:46:53;;;;;;;25.33;13.48;;;;;;;-0.50;75.96;102779.25;5044379;28;20009;-82
2022/03/07 07:49:19;;;;;;;23.98;14.43;;;;;;;-0.56;77.03;102782.09;5040898;28;20274;-82
2022/03/07 07:51:44;;;;;;;21.88;12.80;;;;;;;-0.57;77.14;102787.06;5042331;28;20039;-82
2022/03/07 07:54:10;;;;;;;21.80;13.00;;;;;;;-0.55;76.94;102791.59;5044139;28;20029;-82
2022/03/07 07:56:35;;;;;;;22.73;13.52;;;;;;;-0.53;77.43;102790.09;5033105;28;20029;-78
2022/03/07 07:59:00;;;;;;;23.15;13.63;;;;;;;-0.49;77.11;102795.50;5044315;28;20017;-77
2022/03/07 08:01:26;;;;;;;22.90;13.80;;;;;;;-0.43;77.40;102791.03;5040439;28;20260;-78
2022/03/07 08:03:51;;;;;;;23.90;13.23;;;;;;;-0.32;77.43;102790.41;5044752;28;20278;-77
2022/03/07 08:06:17;;;;;;;23.02;14.20;;;;;;;0.08;77.59;102799.44;5043966;28;20021;-77
2022/03/07 08:08:42;;;;;;;26.13;14.52;;;;;;;0.83;75.39;102786.91;5043416;28;20295;-77
2022/03/07 08:11:07;;;;;;;23.02;13.75;;;;;;;1.48;72.66;102788.66;5044545;28;20178;-78
2022/03/07 08:13:33;;;;;;;21.75;13.02;;;;;;;1.95;71.02;102793.75;5044499;28;20022;-78
2022/03/07 08:15:58;;;;;;;18.33;11.55;;;;;;;2.19;69.57;102789.00;5033480;28;20038;-77
2022/03/07 08:18:23;;;;;;;18.98;11.30;;;;;;;2.02;68.94;102795.22;5043792;28;20078;-78
2022/03/07 08:20:50;;;;;;;18.35;11.25;;;;;;;1.73;68.80;102804.66;5035322;28;20246;-78
2022/03/07 08:23:15;;;;;;;17.75;11.35;;;;;;;1.47;69.21;102801.38;5042889;28;20064;-77
2022/03/07 08:25:41;;;;;;;20.20;11.80;;;;;;;1.25;68.96;102795.94;5044287;28;20268;-78
2022/03/07 08:28:06;;;;;;;18.15;11.63;;;;;;;1.09;70.17;102793.59;5044061;28;20025;-78
2022/03/07 08:30:33;;;;;;;17.33;11.20;;;;;;;0.99;71.88;102797.84;5043509;28;20090;-77
2022/03/07 08:32:59;;;;;;;18.00;11.32;;;;;;;0.92;72.70;102792.91;5043979;28;20159;-77
2022/03/07 08:35:25;;;;;;;18.77;11.50;;;;;;;0.90;72.81;102799.56;5043945;28;20024;-77
2022/03/07 08:37:52;;;;;;;19.08;11.63;;;;;;;0.89;72.78;102802.88;5043902;28;20198;-77
2022/03/07 08:40:19;;;;;;;20.30;11.25;;;;;;;0.89;73.22;102789.16;5044126;28;20053;-77
2022/03/07 08:42:45;;;;;;;18.05;11.27;;;;;;;0.91;73.11;102792.75;5044066;28;20025;-76
2022/03/07 08:45:11;;;;;;;17.85;11.93;;;;;;;0.91;72.56;102800.47;5043132;28;20041;-77
2022/03/07 08:47:37;;;;;;;16.42;11.18;;;;;;;0.95;72.69;102797.44;5039273;28;20102;-77
2022/03/07 08:50:04;;;;;;;20.77;12.05;;;;;;;0.97;72.77;102793.31;5043887;28;20283;-77
2022/03/07 08:52:29;;;;;;;19.05;11.82;;;;;;;1.00;72.06;102785.91;5043646;28;20228;-77
2022/03/07 08:54:55;;;;;;;20.85;12.35;;;;;;;1.07;72.25;102790.84;5040693;28;20021;-77
2022/03/07 08:57:20;;;;;;;17.10;10.65;;;;;;;1.13;71.20;102786.31;5040988;28;20029;-79
2022/03/07 08:59:46;;;;;;;16.05;9.90;;;;;;;1.20;70.90;102788.69;5043614;28;20028;-79
2022/03/07 09:02:12;;;;;;;17.48;10.90;;;;;;;1.28;71.96;102786.84;5043252;28;20260;-79
2022/03/07 09:04:40;;;;;;;15.20;9.77;;;;;;;1.38;70.75;102791.16;5042464;28;20020;-79
2022/03/07 09:07:06;;;;;;;16.85;9.85;;;;;;;1.44;69.89;102784.00;5043540;28;20006;-79
2022/03/07 09:09:31;;;;;;;17.35;9.85;;;;;;;1.51;69.47;102777.78;5037474;28;20025;-78
2022/03/07 09:11:57;;;;;;;16.17;9.70;;;;;;;1.59;68.21;102783.59;5035549;28;20088;-78
2022/03/07 09:14:22;;;;;;;15.52;9.00;;;;;;;1.65;69.23;102787.66;5042630;28;20037;-78
2022/03/07 09:16:47;;;;;;;15.27;9.77;;;;;;;1.70;67.58;102781.25;5039945;28;20294;-79
2022/03/07 09:19:13;;;;;;;14.70;9.05;;;;;;;1.77;66.39;102777.56;5043823;28;20014;-79
2022/03/07 09:21:38;;;;;;;14.40;9.40;;;;;;;1.86;67.44;102780.97;5043573;28;20018;-78
2022/03/07 09:24:05;;;;;;;13.18;8.50;;;;;;;1.95;66.63;102785.13;5043401;28;20022;-79
2022/03/07 09:26:30;;;;;;;14.32;9.15;;;;;;;2.02;66.34;102779.78;5043402;28;20025;-78
2022/03/07 09:28:55;;;;;;;12.15;8.40;;;;;;;2.09;65.22;102766.72;5043379;28;20022;-78
2022/03/07 09:31:20;;;;;;;14.13;8.50;;;;;;;2.15;64.88;102767.25;5035142;28;20081;-78
2022/03/07 09:33:46;;;;;;;11.70;8.23;;;;;;;2.22;65.25;102766.13;5038693;28;20175;-78
2022/03/07 09:36:12;;;;;;;14.07;8.80;;;;;;;2.30;64.38;102764.22;5043242;28;20089;-78
2022/03/07 09:38:38;;;;;;;14.57;9.00;;;;;;;2.39;65.97;102763.38;5043258;28;20014;-79
2022/03/07 09:41:04;;;;;;;11.82;7.78;;;;;;;2.47;64.28;102760.56;5037889;28;20021;-79
2022/03/07 09:43:30;;;;;;;13.30;8.00;;;;;;;2.55;63.33;102760.47;5041584;28;20186;-79
2022/03/07 09:45:56;;;;;;;10.40;6.75;;;;;;;2.63;62.73;102757.66;5043420;28;20040;-78
2022/03/07 09:48:24;;;;;;;12.63;7.55;;;;;;;2.69;62.64;102763.34;5042750;28;20179;-79
2022/03/07 09:50:50;;;;;;;11.13;6.95;;;;;;;2.75;62.86;102763.84;5022716;28;20172;-78
2022/03/07 09:53:17;;;;;;;11.70;6.85;;;;;;;2.79;61.19;102758.19;5035090;28;20014;-79
2022/03/07 09:55:43;;;;;;;15.00;6.95;;;;;;;2.84;60.64;102764.66;5042423;28;20079;-79
2022/03/07 09:58:09;;;;;;;10.85;6.93;;;;;;;2.90;61.91;102760.03;5042815;28;20089;-82
2022/03/07 10:00:35;;;;;;;11.55;6.85;;;;;;;2.97;60.29;102743.44;5042057;28;20026;-81
2022/03/07 10:03:05;;;;;;;10.90;6.65;;;;;;;3.07;61.92;102748.59;5041610;28;20097;-83
2022/03/07 10:05:45;;;;;;;11.45;7.03;;;;;;;3.15;60.93;102745.78;5033605;28;20013;-82
2022/03/07 10:08:20;;;;;;;10.82;6.63;;;;;;;3.22;60.81;102733.53;5042559;28;20337;-81
2022/03/07 10:10:45;;;;;;;11.23;6.70;;;;;;;3.29;59.58;102735.84;5042722;28;20024;-82
2022/03/07 10:13:13;;;;;;;10.18;6.72;;;;;;;3.36;60.76;102741.50;5045180;28;20021;-82
2022/03/07 10:15:40;;;;;;;10.45;7.05;;;;;;;3.40;60.21;102741.88;5044529;28;20051;-81
2022/03/07 10:18:10;;;;;;;11.27;6.63;;;;;;;3.48;60.64;102739.97;5030388;28;20017;-81
2022/03/07 10:20:36;;;;;;;10.10;6.53;;;;;;;3.51;59.58;102740.22;5034404;28;20024;-81
2022/03/07 10:23:02;;;;;;;10.75;6.65;;;;;;;3.56;58.09;102741.47;5044333;28;20171;-81
2022/03/07 10:25:30;;;;;;;12.52;6.57;;;;;;;3.64;57.46;102732.72;5046915;28;20021;-80
2022/03/07 10:28:00;;;;;;;10.05;6.22;;;;;;;3.70;57.92;102723.69;5045714;28;20023;-77
2022/03/07 10:30:28;;;;;;;9.57;6.72;;;;;;;3.78;60.12;102727.78;5045224;28;20054;-77
2022/03/07 10:33:11;;;;;;;11.40;6.30;;;;;;;3.88;58.96;102724.28;5044771;28;20013;-77
2022/03/07 10:35:40;;;;;;;9.50;6.22;;;;;;;3.95;58.84;102722.34;5046116;28;20052;-77
2022/03/07 10:38:10;;;;;;;;;;;;;;;4.04;59.85;102722.19;5046681;28;20104;-76
2022/03/07 10:40:41;;;;;;;11.07;5.88;;;;;;;4.14;59.35;102718.63;5046324;28;19901;-76
2022/03/07 10:43:07;;;;;;;10.07;5.90;;;;;;;4.20;57.59;102711.41;5044954;28;20248;-76
2022/03/07 10:45:48;;;;;;;9.13;6.20;;;;;;;4.25;58.14;102702.34;5046214;28;20026;-76
2022/03/07 10:48:14;;;;;;;9.88;6.22;;;;;;;4.29;57.50;102704.38;5044338;28;20013;-76
2022/03/07 10:50:45;;;;;;;9.77;6.00;;;;;;;4.34;56.46;102697.91;5045720;28;20025;-76
2022/03/07 10:53:10;;;;;;;8.77;6.15;;;;;;;4.42;56.17;102695.00;5045914;28;20334;-76
2022/03/07 10:55:36;;;;;;;9.80;6.75;;;;;;;4.49;57.32;102694.72;5046056;28;20272;-76
2022/03/07 10:58:11;;;;;;;11.10;6.18;;;;;;;4.54;58.08;102690.81;5045738;28;20014;-76
2022/03/07 11:00:54;;;;;;;8.80;5.90;;;;;;;4.61;56.55;102687.94;5045539;28;20025;-76
2022/03/07 11:03:33;;;;;;;11.27;6.60;;;;;;;4.67;56.47;102683.25;5040307;28;20021;-76
2022/03/07 11:06:00;;;;;;;10.40;6.47;;;;;;;4.69;55.82;102679.13;5040723;28;20035;-76
2022/03/07 11:08:26;;;;;;;13.10;6.88;;;;;;;4.72;55.81;102672.38;5043478;28;20005;-76
2022/03/07 11:10:54;;;;;;;9.60;6.22;;;;;;;4.77;56.06;102668.47;5045191;28;20315;-76